Time;durP1;ratioP1;P1;durP2;ratioP2;P2;SDS_P1;SDS_P2;PMS_P1;PMS_P2;Temp;Humidity;BMP_temperature;BMP_pressure;BME280_temperature;BME280_humidity;BME280_pressure;Samples;Min_cycle;Max_cycle;Signal;HPM_P1;HPM_P2
2023/10/13 00:00:58;;;;;;;;;;;;;;;;;;5068445;28;19916;-58
2023/10/13 00:03:25;;;;;;;;;;;;;;;;;;5064707;28;19908;-58
2023/10/13 00:05:52;;;;;;;;;;;;;;;;;;5072032;28;19939;-58
2023/10/13 00:08:20;;;;;;;;;;;;;;;;;;5067320;28;20034;-58
2023/10/13 00:10:47;;;;;;;;;;;;;;;;;;5066679;28;20000;-57
2023/10/13 00:13:15;;;;;;;;;;;;;;;;;;5073645;28;19916;-57
2023/10/13 00:15:52;;;;;;;;;;;;;;;;;;5066703;28;20007;-57
2023/10/13 00:18:19;;;;;;;;;;;;;;;;;;5067420;28;19912;-57
2023/10/13 00:20:49;;;;;;;;;;;;;;;;;;5067748;28;20276;-57
2023/10/13 00:23:20;;;;;;;;;;;;;;;;;;5059344;28;19909;-57
2023/10/13 00:25:50;;;;;;;;;;;;;;;;;;5065838;28;19956;-58
2023/10/13 00:28:23;;;;;;;;;;;;;;;;;;5071207;28;19908;-58
2023/10/13 00:30:51;;;;;;;;;;;;;;;;;;5063242;28;20077;-58
2023/10/13 00:33:22;;;;;;;;;;;;;;;;;;5064954;28;19916;-58
2023/10/13 00:35:51;;;;;;;;;;;;;;;;;;5062025;28;19974;-59
2023/10/13 00:38:18;;;;;;;;;;;;;;;;;;5065706;28;19920;-57
2023/10/13 00:40:51;;;;;;;;;;;;;;;;;;5061279;28;19920;-58
2023/10/13 00:45:43;;;;;;;;;;;;;;;;;;5075679;28;19912;-58
2023/10/13 00:48:12;;;;;;;;;;;;;;;;;;5064321;28;19924;-58
2023/10/13 00:50:37;;;;;;;;;;;;;;;;;;5068054;28;19912;-58
2023/10/13 00:53:03;;;;;;;;;;;;;;;;;;5065227;28;19908;-57
2023/10/13 00:55:33;;;;;;;;;;;;;;;;;;5070051;28;19947;-57
2023/10/13 00:58:02;;;;;;;;;;;;;;;;;;5065117;28;19941;-57
2023/10/13 01:00:28;;;;;;;;;;;;;;;;;;5067460;28;19981;-58
2023/10/13 01:02:55;;;;;;;;;;;;;;;;;;5064794;28;19917;-57
2023/10/13 01:05:22;;;;;;;;;;;;;;;;;;5067483;28;19912;-57
2023/10/13 01:07:52;;;;;;;;;;;;;;;;;;5074606;28;19970;-58
2023/10/13 01:10:19;;;;;;;;;;;;;;;;;;5067269;28;19912;-57
2023/10/13 01:12:45;;;;;;;;;;;;;;;;;;5066782;28;20347;-57
2023/10/13 01:15:18;;;;;;;;;;;;;;;;;;5063811;28;19927;-57
2023/10/13 01:17:44;;;;;;;;;;;;;;;;;;5060136;28;19912;-57
2023/10/13 01:20:14;;;;;;;;;;;;;;;;;;5062586;28;19908;-57
2023/10/13 01:22:41;;;;;;;;;;;;;;;;;;5065234;28;19909;-56
2023/10/13 01:25:13;;;;;;;;;;;;;;;;;;5068901;28;19917;-57
2023/10/13 01:27:39;;;;;;;;;;;;;;;;;;5063211;28;20372;-56
2023/10/13 01:30:09;;;;;;;;;;;;;;;;;;5062000;28;19966;-57
2023/10/13 01:32:40;;;;;;;;;;;;;;;;;;5063076;28;19955;-58
2023/10/13 01:35:06;;;;;;;;;;;;;;;;;;5066465;28;20358;-57
2023/10/13 01:37:32;;;;;;;;;;;;;;;;;;5065319;28;19947;-57
2023/10/13 01:39:58;;;;;;;;;;;;;;;;;;5065222;28;19956;-57
2023/10/13 01:42:24;;;;;;;;;;;;;;;;;;5063140;28;20028;-57
2023/10/13 01:44:51;;;;;;;;;;;;;;;;;;5063210;28;19916;-57
2023/10/13 01:47:16;;;;;;;;;;;;;;;;;;5076009;28;19916;-57
2023/10/13 01:49:46;;;;;;;;;;;;;;;;;;5067904;28;19939;-57
2023/10/13 01:52:15;;;;;;;;;;;;;;;;;;5061695;28;20453;-57
2023/10/13 01:54:44;;;;;;;;;;;;;;;;;;5059867;28;19991;-57
2023/10/13 01:57:19;;;;;;;;;;;;;;;;;;5062920;28;20364;-57
2023/10/13 01:59:45;;;;;;;;;;;;;;;;;;5064847;28;20974;-57
2023/10/13 02:02:15;;;;;;;;;;;;;;;;;;5066060;28;20003;-56
2023/10/13 02:04:57;;;;;;;;;;;;;;;;;;5065538;28;19965;-57
2023/10/13 02:07:29;;;;;;;;;;;;;;;;;;5066513;28;20786;-57
2023/10/13 02:09:55;;;;;;;;;;;;;;;;;;5065134;28;19908;-56
2023/10/13 02:12:27;;;;;;;;;;;;;;;;;;5068284;28;19962;-56
2023/10/13 02:14:53;;;;;;;;;;;;;;;;;;5069718;28;20234;-56
2023/10/13 02:17:21;;;;;;;;;;;;;;;;;;5067043;28;19916;-57
2023/10/13 02:19:47;;;;;;;;;;;;;;;;;;5069863;28;20268;-56
2023/10/13 02:22:28;;;;;;;;;;;;;;;;;;5064700;28;19967;-57
2023/10/13 02:25:01;;;;;;;;;;;;;;;;;;5064174;28;20431;-57
2023/10/13 02:27:27;;;;;;;;;;;;;;;;;;5060218;28;20291;-56
2023/10/13 02:29:58;;;;;;;;;;;;;;;;;;5069822;28;19920;-56
2023/10/13 02:32:24;;;;;;;;;;;;;;;;;;5065786;28;19923;-56
2023/10/13 02:34:50;;;;;;;;;;;;;;;;;;5068051;28;19923;-57
2023/10/13 02:37:19;;;;;;;;;;;;;;;;;;5066949;28;20248;-57
2023/10/13 02:39:45;;;;;;;;;;;;;;;;;;5068169;28;20283;-57
2023/10/13 02:42:23;;;;;;;;;;;;;;;;;;5068763;28;19920;-57
2023/10/13 02:44:49;;;;;;;;;;;;;;;;;;5061422;28;20377;-57
2023/10/13 02:47:15;;;;;;;;;;;;;;;;;;5067472;28;19912;-56
2023/10/13 02:49:45;;;;;;;;;;;;;;;;;;5068812;28;19913;-57
2023/10/13 02:52:12;;;;;;;;;;;;;;;;;;5066238;28;19952;-57
2023/10/13 02:54:46;;;;;;;;;;;;;;;;;;5068288;28;19917;-56
2023/10/13 02:57:12;;;;;;;;;;;;;;;;;;5065145;28;19909;-57
2023/10/13 02:59:47;;;;;;;;;;;;;;;;;;5066381;28;20011;-56
2023/10/13 03:02:27;;;;;;;;;;;;;;;;;;5065250;28;19923;-57
2023/10/13 03:04:59;;;;;;;;;;;;;;;;;;5063594;28;19916;-57
2023/10/13 03:07:28;;;;;;;;;;;;;;;;;;5063872;28;19916;-57
2023/10/13 03:09:57;;;;;;;;;;;;;;;;;;5068329;28;19938;-57
2023/10/13 03:12:24;;;;;;;;;;;;;;;;;;5063556;28;19917;-56
2023/10/13 03:15:12;;;;;;;;;;;;;;;;;;5063695;28;19916;-57
2023/10/13 03:17:37;;;;;;;;;;;;;;;;;;5064421;28;19974;-57
2023/10/13 03:20:05;;;;;;;;;;;;;;;;;;5063284;28;19908;-56
2023/10/13 03:22:31;;;;;;;;;;;;;;;;;;5064742;28;20030;-57
2023/10/13 03:25:05;;;;;;;;;;;;;;;;;;5067303;28;20236;-57
2023/10/13 03:28:00;;;;;;;;;;;;;;;;;;5065173;28;19916;-57
2023/10/13 03:30:35;;;;;;;;;;;;;;;;;;5067734;28;20331;-59
2023/10/13 03:33:01;;;;;;;;;;;;;;;;;;5065891;28;19916;-59
2023/10/13 03:35:42;;;;;;;;;;;;;;;;;;5065519;28;20346;-59
2023/10/13 03:38:16;;;;;;;;;;;;;;;;;;5066723;28;19984;-59
2023/10/13 03:40:48;;;;;;;;;;;;;;;;;;5065967;28;19915;-59
2023/10/13 03:43:16;;;;;;;;;;;;;;;;;;5064296;28;19961;-59
2023/10/13 03:45:42;;;;;;;;;;;;;;;;;;5063520;28;19931;-59
2023/10/13 03:48:21;;;;;;;;;;;;;;;;;;5065878;28;19909;-59
2023/10/13 03:51:01;;;;;;;;;;;;;;;;;;5068290;28;20301;-59
2023/10/13 03:53:33;;;;;;;;;;;;;;;;;;5065647;28;19920;-58
2023/10/13 03:56:08;;;;;;;;;;;;;;;;;;5061675;28;20002;-59
2023/10/13 03:58:35;;;;;;;;;;;;;;;;;;5075803;28;19908;-58
2023/10/13 04:01:01;;;;;;;;;;;;;;;;;;5057161;28;19913;-59
2023/10/13 04:03:42;;;;;;;;;;;;;;;;;;5063791;28;19928;-59
2023/10/13 04:06:16;;;;;;;;;;;;;;;;;;5061586;28;19912;-59
2023/10/13 04:16:50;;;;;;;;;;;;;;;;;;5061659;28;19916;-59
2023/10/13 04:19:28;;;;;;;;;;;;;;;;;;5062677;28;19988;-59
2023/10/13 04:21:58;;;;;;;;;;;;;;;;;;5066398;28;19919;-59
2023/10/13 04:25:00;;;;;;;;;;;;;;;;;;5062775;28;19958;-59
2023/10/13 04:27:53;;;;;;;;;;;;;;;;;;5061682;28;19944;-59
2023/10/13 04:30:38;;;;;;;;;;;;;;;;;;5067091;28;19923;-59
2023/10/13 04:33:17;;;;;;;;;;;;;;;;;;5062831;28;19920;-59
2023/10/13 04:35:57;;;;;;;;;;;;;;;;;;5065210;28;20461;-59
2023/10/13 04:38:33;;;;;;;;;;;;;;;;;;5065553;28;19967;-57
2023/10/13 04:41:01;;;;;;;;;;;;;;;;;;5058183;28;19913;-57
2023/10/13 04:43:33;;;;;;;;;;;;;;;;;;5058446;28;20323;-58
2023/10/13 04:46:14;;;;;;;;;;;;;;;;;;5061069;28;20015;-57
2023/10/13 04:48:46;;;;;;;;;;;;;;;;;;5062039;28;19916;-57
2023/10/13 04:51:34;;;;;;;;;;;;;;;;;;5060121;28;19916;-57
2023/10/13 04:54:03;;;;;;;;;;;;;;;;;;5064379;28;19919;-57
2023/10/13 05:51:43;;;;;;;;;;;;;;;;;;5069005;28;19908;-56
2023/10/13 06:29:33;;;;;;;;;;;;;;;;;;5065889;28;19953;-58
2023/10/13 06:32:01;;;;;;;;;;;;;;;;;;5068600;28;19920;-58
2023/10/13 06:34:37;;;;;;;;;;;;;;;;;;5068416;28;19917;-58
2023/10/13 06:37:03;;;;;;;;;;;;;;;;;;5062712;28;19989;-58
2023/10/13 06:39:35;;;;;;;;;;;;;;;;;;5067073;28;20026;-55
2023/10/13 06:42:02;;;;;;;;;;;;;;;;;;5068189;28;19988;-56
2023/10/13 06:44:32;;;;;;;;;;;;;;;;;;5067784;28;19912;-56
2023/10/13 06:46:58;;;;;;;;;;;;;;;;;;5068144;28;19950;-56
2023/10/13 06:49:24;;;;;;;;;;;;;;;;;;5069159;28;19913;-56
2023/10/13 06:51:51;;;;;;;;;;;;;;;;;;5066521;28;19908;-55
2023/10/13 06:54:20;;;;;;;;;;;;;;;;;;5066421;28;20261;-56
2023/10/13 06:56:46;;;;;;;;;;;;;;;;;;5063141;28;19999;-56
2023/10/13 06:59:13;;;;;;;;;;;;;;;;;;5067941;28;20402;-57
2023/10/13 07:01:40;;;;;;;;;;;;;;;;;;5064739;28;19962;-57
2023/10/13 07:04:12;;;;;;;;;;;;;;;;;;5067108;28;20384;-57
2023/10/13 07:06:42;;;;;;;;;;;;;;;;;;5067795;28;20452;-57
2023/10/13 07:09:15;;;;;;;;;;;;;;;;;;5067213;28;19926;-57
2023/10/13 07:11:42;;;;;;;;;;;;;;;;;;5064344;28;19913;-58
2023/10/13 07:14:16;;;;;;;;;;;;;;;;;;5064388;28;19916;-57
2023/10/13 07:16:43;;;;;;;;;;;;;;;;;;5068109;28;19942;-57
2023/10/13 07:19:09;;;;;;;;;;;;;;;;;;5069190;28;19943;-57
2023/10/13 07:21:45;;;;;;;;;;;;;;;;;;5068485;28;19959;-57
2023/10/13 07:24:11;;;;;;;;;;;;;;;;;;5066898;28;19908;-57
2023/10/13 07:26:42;;;;;;;;;;;;;;;;;;5067473;28;19966;-57
2023/10/13 07:29:09;;;;;;;;;;;;;;;;;;5066355;28;19916;-57
2023/10/13 07:31:37;;;;;;;;;;;;;;;;;;5065875;28;20386;-57
2023/10/13 07:34:12;;;;;;;;;;;;;;;;;;5067999;28;19912;-57
2023/10/13 07:36:43;;;;;;;;;;;;;;;;;;5067581;28;20089;-57
2023/10/13 07:39:21;;;;;;;;;;;;;;;;;;5066435;28;19908;-57
2023/10/13 07:41:51;;;;;;;;;;;;;;;;;;5066146;28;20205;-57
2023/10/13 07:44:19;;;;;;;;;;;;;;;;;;5066744;28;20341;-57
2023/10/13 07:46:57;;;;;;;12.87;8.33;;;;;;;;;;5067452;28;20730;-57
2023/10/13 07:49:25;;;;;;;10.00;7.20;;;;;;;;;;5068278;28;20165;-57
2023/10/13 07:51:57;;;;;;;11.73;7.50;;;;;;;;;;5065480;28;20258;-57
2023/10/13 07:54:23;;;;;;;9.97;7.70;;;;;;;;;;5066084;28;20212;-56
2023/10/13 07:56:50;;;;;;;9.37;8.37;;;;;;;;;;5065748;28;20164;-57
2023/10/13 07:59:16;;;;;;;;;;;;;;;;;;5067434;28;20208;-57
2023/10/13 08:01:43;;;;;;;;;;;;;;;;;;5062878;28;20451;-57
2023/10/13 08:04:11;;;;;;;;;;;;;;;;;;5071381;28;19961;-59
2023/10/13 08:06:40;;;;;;;8.73;7.93;;;;;;;;;;5068899;28;20120;-57
2023/10/13 08:09:28;;;;;;;12.83;8.40;;;;;;;;;;5063728;28;20476;-57
2023/10/13 08:11:54;;;;;;;10.23;9.00;;;;;;;;;;5065942;28;20204;-54
2023/10/13 08:14:28;;;;;;;13.77;8.53;;;;;;;;;;5069205;28;20919;-55
2023/10/13 08:19:32;;;;;;;13.30;8.47;;;;;;;;;;5069085;28;20177;-55
2023/10/13 08:21:59;;;;;;;10.47;8.03;;;;;;;;;;5067973;28;20164;-55
2023/10/13 08:32:54;;;;;;;12.17;9.03;;;;;;;;;;5067472;28;20191;-55
2023/10/13 08:41:25;;;;;;;11.93;8.77;;;;;;;;;;5054646;28;20189;-56
2023/10/13 08:43:43;;;;;;;11.80;7.63;;;;;;;;;;5059533;28;20199;-55
2023/10/13 08:46:24;;;;;;;10.07;7.97;;;;;;;;;;5068443;28;20572;-55
2023/10/13 08:48:50;;;;;;;13.67;9.07;;;;;;;;;;5067721;28;20198;-55
2023/10/13 08:51:31;;;;;;;12.40;7.67;;;;;;;;;;5068164;28;20182;-56
2023/10/13 08:53:58;;;;;;;9.50;8.40;;;;;;;;;;5064943;28;20199;-56
2023/10/13 08:56:34;;;;;;;13.00;8.23;;;;;;;;;;5047989;28;20187;-56
2023/10/13 09:01:34;;;;;;;8.57;6.87;;;;;;;;;;5067628;28;20267;-56
2023/10/13 09:09:27;;;;;;;12.40;7.10;;;;;;;;;;5067541;28;20265;-56
2023/10/13 09:12:09;;;;;;;10.77;7.00;;;;;;;;;;5067875;28;20310;-56
2023/10/13 09:14:44;;;;;;;8.73;6.20;;;;;;;;;;5068132;28;20195;-55
2023/10/13 09:19:56;;;;;;;7.43;5.90;;;;;;;;;;5068512;28;20236;-58
2023/10/13 09:22:35;;;;;;;8.20;5.13;;;;;;;;;;5065388;28;20196;-58
2023/10/13 09:25:02;;;;;;;12.20;5.83;;;;;;;;;;5068103;28;20673;-58
2023/10/13 09:27:32;;;;;;;9.27;6.33;;;;;;;;;;5066757;28;20270;-59
2023/10/13 09:32:48;;;;;;;10.20;6.00;;;;;;;;;;5065244;28;20267;-58
2023/10/13 09:35:27;;;;;;;7.67;5.67;;;;;;;;;;5067962;28;20199;-58
2023/10/13 09:38:02;;;;;;;7.73;5.57;;;;;;;;;;5066011;28;20203;-58
2023/10/13 09:40:38;;;;;;;8.47;6.70;;;;;;;;;;5052666;28;20169;-58
2023/10/13 09:43:08;;;;;;;9.43;6.07;;;;;;;;;;5055602;28;20172;-59
2023/10/13 09:45:38;;;;;;;9.83;6.23;;;;;;;;;;5067418;28;20538;-59
2023/10/13 09:48:06;;;;;;;7.00;5.70;;;;;;;;;;5065279;28;20548;-58
2023/10/13 09:50:37;;;;;;;6.40;5.23;;;;;;;;;;5066251;28;20497;-58
2023/10/13 09:53:09;;;;;;;12.87;6.17;;;;;;;;;;5062589;28;20584;-58
2023/10/13 09:55:44;;;;;;;8.60;5.63;;;;;;;;;;5067673;28;20196;-58
2023/10/13 09:58:13;;;;;;;11.20;7.07;;;;;;;;;;5066806;28;20192;-59
2023/10/13 10:06:27;;;;;;;6.77;5.73;;;;;;;;;;5067553;28;20679;-58
2023/10/13 10:08:51;;;;;;;8.23;5.97;;;;;;;;;;5066088;28;20188;-58
2023/10/13 10:11:17;;;;;;;10.00;6.13;;;;;;;;;;5057324;28;20918;-58
2023/10/13 10:14:09;;;;;;;10.30;7.07;;;;;;;;;;5061436;28;20228;-58
2023/10/13 10:16:46;;;;;;;7.07;6.37;;;;;;;;;;5053261;28;20185;-58
2023/10/13 10:19:12;;;;;;;7.18;6.30;;;;;;;;;;5061482;28;20470;-58
2023/10/13 10:21:38;;;;;;;8.77;6.17;;;;;;;;;;5070334;28;20718;-58
2023/10/13 10:24:29;;;;;;;8.63;6.00;;;;;;;;;;5069744;28;20187;-58
2023/10/13 10:26:55;;;;;;;8.30;6.57;;;;;;;;;;5070543;28;20161;-58
2023/10/13 10:29:21;;;;;;;9.53;7.00;;;;;;;;;;5070491;28;20282;-58
2023/10/13 10:31:47;;;;;;;;;;;;;;;;;;5056641;28;20763;-58
2023/10/13 10:34:13;;;;;;;;;;;;;;;;;;5067462;28;20110;-59
2023/10/13 10:36:42;;;;;;;;;;;;;;;;;;5070844;28;19908;-58
2023/10/13 10:39:11;;;;;;;;;;;;;;;;;;5070443;28;19912;-60
2023/10/13 10:44:10;;;;;;;;;;;;;;;;;;5071136;28;19942;-58
2023/10/13 10:46:40;;;;;;;;;;;;;;;;;;5070360;28;20360;-58
2023/10/13 10:49:08;;;;;;;;;;;;;;;;;;5069976;28;19909;-58
2023/10/13 10:51:34;;;;;;;;;;;;;;;;;;5069999;28;19915;-58
2023/10/13 10:54:11;;;;;;;;;;;;;;;;;;5069489;28;19943;-58
2023/10/13 10:56:37;;;;;;;;;;;;;;;;;;5070581;28;19908;-58
2023/10/13 10:59:04;;;;;;;;;;;;;;;;;;5070343;28;19998;-58
2023/10/13 11:01:46;;;;;;;;;;;;;;;;;;5064883;28;19921;-58
2023/10/13 11:04:18;;;;;;;;;;;;;;;;;;5052638;28;20459;-58
2023/10/13 11:06:45;;;;;;;;;;;;;;;;;;5049977;28;20027;-59
2023/10/13 11:09:27;;;;;;;;;;;;;;;;;;5068617;28;20352;-59
2023/10/13 11:11:53;;;;;;;;;;;;;;;;;;5070079;28;19982;-59
2023/10/13 11:14:22;;;;;;;;;;;;;;;;;;5070253;28;20007;-58
2023/10/13 11:16:53;;;;;;;;;;;;;;;;;;5069755;28;19908;-59
2023/10/13 11:19:20;;;;;;;;;;;;;;;;;;5070005;28;19940;-58
2023/10/13 11:21:47;;;;;;;;;;;;;;;;;;5069970;28;19931;-58
2023/10/13 11:24:13;;;;;;;;;;;;;;;;;;5069126;28;19912;-59
2023/10/13 11:26:49;;;;;;;;;;;;;;;;;;5069086;28;19905;-59
2023/10/13 11:29:15;;;;;;;;;;;;;;;;;;5069298;28;19920;-58
2023/10/13 11:31:41;;;;;;;;;;;;;;;;;;5069536;28;20334;-59
2023/10/13 11:34:07;;;;;;;;;;;;;;;;;;5055321;28;19917;-58
2023/10/13 11:36:34;;;;;;;;;;;;;;;;;;5049527;28;20336;-58
2023/10/13 11:39:00;;;;;;;;;;;;;;;;;;5065681;28;20205;-57
2023/10/13 11:41:33;;;;;;;;;;;;;;;;;;5069654;28;19971;-58
2023/10/13 11:44:12;;;;;;;;;;;;;;;;;;5069788;28;19915;-59
2023/10/13 11:51:38;;;;;;;;;;;;;;;;;;5068801;28;20443;-58
2023/10/13 11:54:04;;;;;;;;;;;;;;;;;;5061985;28;19956;-58
2023/10/13 11:56:30;;;;;;;;;;;;;;;;;;5049780;28;19956;-59
2023/10/13 11:59:01;;;;;;;;;;;;;;;;;;5065058;28;19948;-58
2023/10/13 12:04:32;;;;;;;;;;;;;;;;;;5066883;28;19916;-58
2023/10/13 12:10:03;;;;;;;;;;;;;;;;;;5050184;28;19935;-58
2023/10/13 12:12:30;;;;;;;;;;;;;;;;;;5052353;28;19981;-59
2023/10/13 12:14:56;;;;;;;;;;;;;;;;;;5069126;28;19935;-58
2023/10/13 12:17:25;;;;;;;;;;;;;;;;;;5067945;28;20388;-58
2023/10/13 12:19:51;;;;;;;;;;;;;;;;;;5069227;28;20360;-58
2023/10/13 12:22:25;;;;;;;;;;;;;;;;;;5067239;28;19919;-58
2023/10/13 12:24:53;;;;;;;;;;;;;;;;;;5049941;28;20012;-58
2023/10/13 12:27:19;;;;;;;;;;;;;;;;;;5065359;28;20387;-59
2023/10/13 12:29:46;;;;;;;;;;;;;;;;;;5068968;28;20333;-58
2023/10/13 12:32:13;;;;;;;;;;;;;;;;;;5066142;28;19936;-58
2023/10/13 12:34:59;;;;;;;;;;;;;;;;;;5059582;28;20435;-58
2023/10/13 12:51:24;;;;;;;;;;;;;;;;;;5068712;28;20014;-55
2023/10/13 12:53:50;;;;;;;;;;;;;;;;;;5059048;28;19916;-55
2023/10/13 12:56:15;;;;;;;;;;;;;;;;;;5048614;28;20263;-55
2023/10/13 12:58:41;;;;;;;;;;;;;;;;;;5061237;28;19991;-55
2023/10/13 13:01:07;;;;;;;;;;;;;;;;;;5068431;28;19966;-55
2023/10/13 13:03:33;;;;;;;;;;;;;;;;;;5064933;28;19998;-55
2023/10/13 13:06:03;;;;;;;;;;;;;;;;;;5068563;28;20009;-55
2023/10/13 13:08:35;;;;;;;;;;;;;;;;;;5066881;28;19912;-55
2023/10/13 13:11:01;;;;;;;;;;;;;;;;;;5068547;28;19911;-55
2023/10/13 13:13:27;;;;;;;;;;;;;;;;;;5058734;28;19999;-54
2023/10/13 13:15:53;;;;;;;;;;;;;;;;;;5058798;28;20321;-55
2023/10/13 13:18:19;;;;;;;;;;;;;;;;;;5066778;28;19928;-55
2023/10/13 13:20:54;;;;;;;;;;;;;;;;;;5068743;28;19979;-55
2023/10/13 13:23:21;;;;;;;;;;;;;;;;;;5061685;28;20257;-55
2023/10/13 13:25:47;;;;;;;;;;;;;;;;;;5047787;28;19904;-54
2023/10/13 13:28:14;;;;;;;;;;;;;;;;;;5057262;28;20362;-54
2023/10/13 13:30:40;;;;;;;;;;;;;;;;;;5068077;28;19920;-55
2023/10/13 13:33:14;;;;;;;;;;;;;;;;;;5066668;28;20213;-55
2023/10/13 13:35:42;;;;;;;;;;;;;;;;;;5067891;28;20257;-55
2023/10/13 13:38:27;;;;;;;;;;;;;;;;;;5063876;28;20366;-54
2023/10/13 13:40:56;;;;;;;;;;;;;;;;;;5047949;28;19905;-55
2023/10/13 13:43:31;;;;;;;;;;;;;;;;;;5057911;28;19912;-54
2023/10/13 13:46:00;;;;;;;;;;;;;;;;;;5068007;28;19980;-57
2023/10/13 13:48:27;;;;;;;;;;;;;;;;;;5067024;28;20241;-55
2023/10/13 13:51:03;;;;;;;;;;;;;;;;;;5070751;28;19912;-55
2023/10/13 13:53:31;;;;;;;;;;;;;;;;;;5065136;28;19943;-55
2023/10/13 13:55:58;;;;;;;;;;;;;;;;;;5051579;28;19920;-55
2023/10/13 13:58:25;;;;;;;;;;;;;;;;;;5061793;28;19915;-56
2023/10/13 14:00:51;;;;;;;;;;;;;;;;;;5071976;28;19962;-58
2023/10/13 14:03:32;;;;;;;;;;;;;;;;;;5051281;28;19982;-60
2023/10/13 14:05:58;;;;;;;;;;;;;;;;;;5051890;28;19905;-58
2023/10/13 14:08:25;;;;;;;;;;;;;;;;;;5060801;28;19919;-59
2023/10/13 14:13:55;;;;;;;;;;;;;;;;;;5069951;28;19919;-59
2023/10/13 14:16:22;;;;;;;;;;;;;;;;;;5071023;28;19912;-59
2023/10/13 14:18:48;;;;;;;;;;;;;;;;;;5070114;28;20100;-59
2023/10/13 14:21:18;;;;;;;;;;;;;;;;;;5071338;28;19970;-59
2023/10/13 14:23:45;;;;;;;;;;;;;;;;;;5069698;28;19909;-59
2023/10/13 14:26:12;;;;;;;;;;;;;;;;;;5070897;28;19952;-59
2023/10/13 14:28:47;;;;;;;;;;;;;;;;;;5085621;28;19957;-59
2023/10/13 14:31:13;;;;;;;;;;;;;;;;;;5066886;28;19951;-59
2023/10/13 14:33:39;;;;;;;;;;;;;;;;;;5063401;28;19932;-59
2023/10/13 14:36:06;;;;;;;;;;;;;;;;;;5051721;28;20316;-59
2023/10/13 14:38:32;;;;;;;;;;;;;;;;;;5061773;28;19916;-58
2023/10/13 14:40:58;;;;;;;;;;;;;;;;;;5069533;28;20323;-58
2023/10/13 14:43:27;;;;;;;;;;;;;;;;;;5067330;28;20363;-60
2023/10/13 14:45:53;;;;;;;;;;;;;;;;;;5070735;28;20359;-58
2023/10/13 14:48:19;;;;;;;;;;;;;;;;;;5069614;28;19908;-57
2023/10/13 14:50:45;;;;;;;;;;;;;;;;;;5069124;28;19908;-57
2023/10/13 14:53:11;;;;;;;;;;;;;;;;;;5066501;28;19916;-57
2023/10/13 14:55:40;;;;;;;;;;;;;;;;;;5050680;28;19952;-57
2023/10/13 14:58:07;;;;;;;;;;;;;;;;;;5066570;28;20285;-57
2023/10/13 15:00:34;;;;;;;;;;;;;;;;;;5064220;28;20018;-58
2023/10/13 15:03:06;;;;;;;;;;;;;;;;;;5062870;28;20296;-59
2023/10/13 15:05:33;;;;;;;;;;;;;;;;;;5062356;28;19916;-58
2023/10/13 15:07:59;;;;;;;;;;;;;;;;;;5068444;28;20345;-57
2023/10/13 15:10:25;;;;;;;;;;;;;;;;;;5069999;28;19939;-55
2023/10/13 15:12:51;;;;;;;;;;;;;;;;;;5067436;28;19962;-55
2023/10/13 15:15:19;;;;;;;;;;;;;;;;;;5070345;28;19950;-55
2023/10/13 15:17:44;;;;;;;;;;;;;;;;;;5068985;28;19912;-55
2023/10/13 15:20:15;;;;;;;;;;;;;;;;;;5066120;28;20446;-55
2023/10/13 15:22:41;;;;;;;;;;;;;;;;;;5062553;28;19908;-55
2023/10/13 15:25:49;;;;;;;;;;;;;;;;;;5061960;28;19919;-55
2023/10/13 15:27:56;;;;;;;;;;;;;;;;;;5056629;28;19916;-55
2023/10/13 15:30:30;;;;;;;;;;;;;;;;;;5058800;28;20457;-55
2023/10/13 15:32:57;;;;;;;;;;;;;;;;;;5066132;28;19916;-55
2023/10/13 15:35:28;;;;;;;;;;;;;;;;;;5066394;28;19920;-55
2023/10/13 15:37:55;;;;;;;;;;;;;;;;;;5062222;28;19909;-55
2023/10/13 15:40:21;;;;;;;;;;;;;;;;;;5060056;28;19908;-54
2023/10/13 15:42:47;;;;;;;;;;;;;;;;;;5063950;28;20391;-54
2023/10/13 15:45:19;;;;;;;;;;;;;;;;;;5063482;28;19923;-55
2023/10/13 15:47:45;;;;;;;;;;;;;;;;;;5061684;28;19914;-55
2023/10/13 15:50:15;;;;;;;;;;;;;;;;;;5060697;28;19916;-56
2023/10/13 15:52:45;;;;;;;;;;;;;;;;;;5065586;28;19923;-56
2023/10/13 15:55:13;;;;;;;;;;;;;;;;;;5058414;28;20245;-55
2023/10/13 15:57:39;;;;;;;;;;;;;;;;;;5072795;28;19916;-54
2023/10/13 16:00:22;;;;;;;;;;;;;;;;;;5064003;28;20273;-55
2023/10/13 16:02:50;;;;;;;;;;;;;;;;;;5068103;28;20025;-55
2023/10/13 16:05:16;;;;;;;;;;;;;;;;;;5057947;28;19942;-55
2023/10/13 16:07:42;;;;;;;;;;;;;;;;;;5066471;28;20035;-54
2023/10/13 16:10:11;;;;;;;;;;;;;;;;;;5067459;28;19955;-54
2023/10/13 16:12:37;;;;;;;;;;;;;;;;;;5062543;28;19936;-54
2023/10/13 16:15:05;;;;;;;;;;;;;;;;;;5064487;28;19916;-55
2023/10/13 16:17:33;;;;;;;;;;;;;;;;;;5058877;28;19916;-54
2023/10/13 16:19:59;;;;;;;;;;;;;;;;;;5064292;28;19909;-54
2023/10/13 16:22:25;;;;;;;;;;;;;;;;;;5062645;28;19913;-54
2023/10/13 16:24:52;;;;;;;;;;;;;;;;;;5059378;28;19955;-55
2023/10/13 16:27:19;;;;;;;;;;;;;;;;;;5059519;28;19961;-55
2023/10/13 16:29:45;;;;;;;;;;;;;;;;;;5066589;28;19931;-55
2023/10/13 16:32:12;;;;;;;;;;;;;;;;;;5063653;28;20287;-55
2023/10/13 16:34:38;;;;;;;;;;;;;;;;;;5059848;28;20026;-55
2023/10/13 16:37:05;;;;;;;;;;;;;;;;;;5064677;28;20031;-55
2023/10/13 16:39:30;;;;;;;;;;;;;;;;;;5065439;28;19954;-55
2023/10/13 16:41:56;;;;;;;;;;;;;;;;;;5066099;28;20313;-54
2023/10/13 16:44:25;;;;;;;;;;;;;;;;;;5067179;28;19948;-55
2023/10/13 16:46:51;;;;;;;;;;;;;;;;;;5064262;28;20252;-55
2023/10/13 16:49:17;;;;;;;;;;;;;;;;;;5063235;28;20003;-54
2023/10/13 16:51:44;;;;;;;;;;;;;;;;;;5064572;28;19999;-55
2023/10/13 16:54:10;;;;;;;;;;;;;;;;;;5066243;28;19980;-55
2023/10/13 16:56:38;;;;;;;;;;;;;;;;;;5062769;28;20391;-55
2023/10/13 16:59:07;;;;;;;;;;;;;;;;;;5052735;28;19961;-55
2023/10/13 17:01:33;;;;;;;;;;;;;;;;;;5060223;28;19916;-54
2023/10/13 17:03:59;;;;;;;;;;;;;;;;;;5057652;28;20370;-54
2023/10/13 17:06:25;;;;;;;;;;;;;;;;;;5056119;28;19913;-54
2023/10/13 17:08:52;;;;;;;;;;;;;;;;;;5059924;28;19947;-54
2023/10/13 17:11:24;;;;;;;;;;;;;;;;;;5056454;28;20279;-54
2023/10/13 17:13:50;;;;;;;;;;;;;;;;;;5059714;28;20237;-54
2023/10/13 17:16:17;;;;;;;;;;;;;;;;;;5061967;28;19994;-55
2023/10/13 17:18:43;;;;;;;;;;;;;;;;;;5058700;28;19919;-55
2023/10/13 17:21:09;;;;;;;;;;;;;;;;;;5059522;28;20400;-55
2023/10/13 17:23:35;;;;;;;;;;;;;;;;;;5056843;28;19974;-55
2023/10/13 17:26:01;;;;;;;;;;;;;;;;;;5058157;28;20007;-55
2023/10/13 17:28:27;;;;;;;;;;;;;;;;;;5062604;28;19978;-55
2023/10/13 17:30:53;;;;;;;;;;;;;;;;;;5057763;28;19963;-55
2023/10/13 17:33:19;;;;;;;;;;;;;;;;;;5060007;28;19951;-55
2023/10/13 17:35:45;;;;;;;;;;;;;;;;;;5058792;28;19947;-55
2023/10/13 17:38:11;;;;;;;;;;;;;;;;;;5064017;28;19959;-55
2023/10/13 17:40:38;;;;;;;;;;;;;;;;;;5059579;28;20335;-55
2023/10/13 17:43:04;;;;;;;;;;;;;;;;;;5061367;28;20404;-54
2023/10/13 17:45:30;;;;;;;;;;;;;;;;;;5061543;28;19952;-55
2023/10/13 17:47:56;;;;;;;;;;;;;;;;;;5064372;28;19950;-55
2023/10/13 17:50:22;;;;;;;;;;;;;;;;;;5060116;28;19955;-55
2023/10/13 17:52:48;;;;;;;;;;;;;;;;;;5057053;28;19973;-55
2023/10/13 17:55:16;;;;;;;;;;;;;;;;;;5065440;28;19916;-55
2023/10/13 17:57:42;;;;;;;;;;;;;;;;;;5062697;28;20324;-55
2023/10/13 18:00:14;;;;;;;;;;;;;;;;;;5058455;28;19952;-55
2023/10/13 18:02:43;;;;;;;;;;;;;;;;;;5060600;28;19920;-55
2023/10/13 18:05:10;;;;;;;;;;;;;;;;;;5059950;28;20370;-56
2023/10/13 18:07:36;;;;;;;;;;;;;;;;;;5058685;28;19951;-55
2023/10/13 18:10:02;;;;;;;;;;;;;;;;;;5052749;28;19943;-55
2023/10/13 18:12:28;;;;;;;;;;;;;;;;;;5063720;28;19916;-55
2023/10/13 18:14:56;;;;;;;;;;;;;;;;;;5060518;28;19956;-55
2023/10/13 18:17:22;;;;;;;;;;;;;;;;;;5065992;28;20736;-55
2023/10/13 18:19:48;;;;;;;;;;;;;;;;;;5063160;28;19944;-56
2023/10/13 18:22:17;;;;;;;;;;;;;;;;;;5059264;28;19958;-56
2023/10/13 18:24:43;;;;;;;;;;;;;;;;;;5063039;28;19916;-56
2023/10/13 18:27:09;;;;;;;;;;;;;;;;;;5059798;28;19962;-55
2023/10/13 18:29:38;;;;;;;;;;;;;;;;;;5063467;28;19978;-56
2023/10/13 18:32:04;;;;;;;;;;;;;;;;;;5061817;28;19922;-56
2023/10/13 18:34:31;;;;;;;;;;;;;;;;;;5064451;28;19916;-56
2023/10/13 18:36:59;;;;;;;;;;;;;;;;;;5061041;28;19938;-56
2023/10/13 18:39:33;;;;;;;;;;;;;;;;;;5061215;28;19931;-56
2023/10/13 18:41:59;;;;;;;;;;;;;;;;;;5064007;28;19912;-59
2023/10/13 18:44:26;;;;;;;;;;;;;;;;;;5062619;28;19966;-59
2023/10/13 18:46:53;;;;;;;;;;;;;;;;;;5066140;28;19924;-57
2023/10/13 18:49:19;;;;;;;;;;;;;;;;;;5064156;28;19916;-57
2023/10/13 18:51:46;;;;;;;;;;;;;;;;;;5063669;28;19923;-56
2023/10/13 18:54:13;;;;;;;;;;;;;;;;;;5060660;28;19916;-56
2023/10/13 18:56:42;;;;;;;;;;;;;;;;;;5061959;28;20252;-55
2023/10/13 18:59:08;;;;;;;;;;;;;;;;;;5058816;28;19916;-56
2023/10/13 19:01:34;;;;;;;;;;;;;;;;;;5060303;28;19919;-55
2023/10/13 19:04:04;;;;;;;29.00;6.13;;;;;;;;;;5062865;28;20474;-55
2023/10/13 19:06:30;;;;;;;;;;;;;;;;;;5060909;28;20025;-54
2023/10/13 19:08:56;;;;;;;;;;;;;;;;;;5060388;28;20029;-54
2023/10/13 19:11:22;;;;;;;;;;;;;;;;;;5058426;28;19955;-53
2023/10/13 19:13:49;;;;;;;;;;;;;;;;;;5065539;28;20296;-53
2023/10/13 19:16:15;;;;;;;;;;;;;;;;;;5063554;28;20327;-53
2023/10/13 19:18:46;;;;;;;;;;;;;;;;;;5068092;28;19950;-53
2023/10/13 19:21:14;;;;;;;;;;;;;;;;;;5066741;28;20310;-53
2023/10/13 19:23:40;;;;;;;;;;;;;;;;;;5058015;28;19908;-53
2023/10/13 19:26:06;;;;;;;;;;;;;;;;;;5063750;28;19943;-53
2023/10/13 19:28:33;;;;;;;;;;;;;;;;;;5066898;28;19963;-53
2023/10/13 19:30:59;;;;;;;;;;;;;;;;;;5059959;28;19912;-53